Overview Statistics Trail Chart Weather Telemetry Raw packets
 

This is the latest recevied weather packets stored in our database for station/object LU4EGV-13. If no packets are shown the sender has not sent any weather packets the latest 10 day(s).

<< 5 6 7 8 9 10 11 >>
Time Temp. Humidity Pressure Rain* Wind** Luminosity Snow
1788584280 8.89° C 67% 1016.9 hPa 0 mm - - -
1788583708 9.44° C 65% 1016.7 hPa 0 mm - - -
1788583068 10° C 62% 1016.8 hPa 0 mm - - -
1788582462 10.56° C 62% 1016.7 hPa 0 mm - - -
1788581867 10.56° C 61% 1016.6 hPa 0 mm - - -
1788581250 10.56° C 60% 1016.6 hPa 0 mm - - -
1788580643 10.56° C 60% 1016.5 hPa 0 mm - - -
1788580039 10.56° C 59% 1016.2 hPa 0 mm - - -
1788579430 10.56° C 58% 1016.3 hPa 0 mm - - -
1788578825 10.56° C 57% 1016.2 hPa 0 mm - - -
1788578218 10.56° C 56% 1016.2 hPa 0 mm - - -
1788577613 10.56° C 55% 1016 hPa 0 mm - - -
1788577006 11.11° C 52% 1016 hPa 0 mm - - -
1788576399 11.67° C 52% 1015.9 hPa 0 mm - - -
1788575794 11.67° C 51% 1015.8 hPa 0 mm - - -
1788575187 12.22° C 50% 1015.8 hPa 0 mm - - -
1788574582 12.22° C 49% 1015.4 hPa 0 mm - - -
1788573977 12.78° C 48% 1015.4 hPa 0 mm - - -
1788573369 13.33° C 46% 1015.3 hPa 0 mm - - -
1788572763 13.33° C 45% 1014.9 hPa 0 mm - - -
1788572156 13.89° C 47% 1014.9 hPa 0 mm - - -
1788571551 13.33° C 53% 1014.5 hPa 0 mm - - -
1788570945 12.78° C 54% 1014.2 hPa 0 mm - - -
1788570338 12.22° C 56% 1014.1 hPa 0 mm - - -
1788569733 12.22° C 55% 1014.2 hPa 0 mm - - -

* Rain latest hour (hover to see other rain measurements)
** Current wind speed in m/s (hover to see current wind gust speed)